sensor_id;sensor_type;location;lat;lon;timestamp;temperature;humidity
1948;DHT22;974;52.400;9.818;2023-11-19T00:01:00;6.00;99.90
1948;DHT22;974;52.400;9.818;2023-11-19T00:03:25;6.00;99.90
1948;DHT22;974;52.400;9.818;2023-11-19T00:05:51;6.10;99.90
1948;DHT22;974;52.400;9.818;2023-11-19T00:08:19;6.00;99.90
1948;DHT22;974;52.400;9.818;2023-11-19T00:10:45;6.10;99.90
1948;DHT22;974;52.400;9.818;2023-11-19T00:13:11;6.10;99.90
1948;DHT22;974;52.400;9.818;2023-11-19T00:15:40;6.10;99.90
1948;DHT22;974;52.400;9.818;2023-11-19T00:18:06;6.10;99.90
1948;DHT22;974;52.400;9.818;2023-11-19T00:20:31;6.10;99.90
1948;DHT22;974;52.400;9.818;2023-11-19T00:22:57;6.10;99.90
1948;DHT22;974;52.400;9.818;2023-11-19T00:25:23;6.20;99.90
1948;DHT22;974;52.400;9.818;2023-11-19T00:27:50;6.20;99.90
1948;DHT22;974;52.400;9.818;2023-11-19T00:30:16;6.20;99.90
1948;DHT22;974;52.400;9.818;2023-11-19T00:32:47;6.20;99.90
1948;DHT22;974;52.400;9.818;2023-11-19T00:35:13;6.30;99.90
1948;DHT22;974;52.400;9.818;2023-11-19T00:37:39;6.30;99.90
1948;DHT22;974;52.400;9.818;2023-11-19T00:40:08;6.30;99.90
1948;DHT22;974;52.400;9.818;2023-11-19T00:42:35;6.30;99.90
1948;DHT22;974;52.400;9.818;2023-11-19T00:45:01;6.30;99.90
1948;DHT22;974;52.400;9.818;2023-11-19T00:47:29;6.30;99.90
1948;DHT22;974;52.400;9.818;2023-11-19T00:49:56;6.40;99.90
1948;DHT22;974;52.400;9.818;2023-11-19T00:52:22;6.40;99.90
1948;DHT22;974;52.400;9.818;2023-11-19T00:54:47;6.40;99.90
1948;DHT22;974;52.400;9.818;2023-11-19T00:57:13;6.40;99.90
1948;DHT22;974;52.400;9.818;2023-11-19T00:59:44;6.40;99.90
1948;DHT22;974;52.400;9.818;2023-11-19T01:02:10;6.40;99.90
1948;DHT22;974;52.400;9.818;2023-11-19T01:04:35;6.40;99.90
1948;DHT22;974;52.400;9.818;2023-11-19T01:07:02;6.50;99.90
1948;DHT22;974;52.400;9.818;2023-11-19T01:09:34;6.50;99.90
1948;DHT22;974;52.400;9.818;2023-11-19T01:12:02;6.50;99.90
1948;DHT22;974;52.400;9.818;2023-11-19T01:14:28;6.50;99.90
1948;DHT22;974;52.400;9.818;2023-11-19T01:16:54;6.50;99.90
1948;DHT22;974;52.400;9.818;2023-11-19T01:19:21;6.60;99.90
1948;DHT22;974;52.400;9.818;2023-11-19T01:21:48;6.60;99.90
1948;DHT22;974;52.400;9.818;2023-11-19T01:24:14;6.60;99.90
1948;DHT22;974;52.400;9.818;2023-11-19T01:26:40;6.60;99.90
1948;DHT22;974;52.400;9.818;2023-11-19T01:29:11;6.70;99.90
1948;DHT22;974;52.400;9.818;2023-11-19T01:31:46;6.60;99.90
1948;DHT22;974;52.400;9.818;2023-11-19T01:34:12;6.80;99.90
1948;DHT22;974;52.400;9.818;2023-11-19T01:36:38;6.80;99.90
1948;DHT22;974;52.400;9.818;2023-11-19T01:39:04;6.80;99.90
1948;DHT22;974;52.400;9.818;2023-11-19T01:41:43;6.80;99.90
1948;DHT22;974;52.400;9.818;2023-11-19T01:44:08;6.80;99.90
1948;DHT22;974;52.400;9.818;2023-11-19T01:46:37;6.90;99.90
1948;DHT22;974;52.400;9.818;2023-11-19T01:49:03;6.90;99.90
1948;DHT22;974;52.400;9.818;2023-11-19T01:51:30;7.00;99.90
1948;DHT22;974;52.400;9.818;2023-11-19T01:53:57;7.00;99.90
1948;DHT22;974;52.400;9.818;2023-11-19T01:56:27;7.00;99.90
1948;DHT22;974;52.400;9.818;2023-11-19T01:58:54;7.00;99.90
1948;DHT22;974;52.400;9.818;2023-11-19T02:01:21;7.00;99.90
1948;DHT22;974;52.400;9.818;2023-11-19T02:03:47;7.10;99.90
1948;DHT22;974;52.400;9.818;2023-11-19T02:06:12;7.10;99.90
1948;DHT22;974;52.400;9.818;2023-11-19T02:08:39;7.10;99.90
1948;DHT22;974;52.400;9.818;2023-11-19T02:11:05;7.10;99.90
1948;DHT22;974;52.400;9.818;2023-11-19T02:13:32;7.10;99.90
1948;DHT22;974;52.400;9.818;2023-11-19T02:16:01;7.10;99.90
1948;DHT22;974;52.400;9.818;2023-11-19T02:18:28;7.20;99.90
1948;DHT22;974;52.400;9.818;2023-11-19T02:20:57;7.20;99.90
1948;DHT22;974;52.400;9.818;2023-11-19T02:23:23;7.20;99.90
1948;DHT22;974;52.400;9.818;2023-11-19T02:26:18;7.40;99.90
1948;DHT22;974;52.400;9.818;2023-11-19T02:28:48;7.20;99.90
1948;DHT22;974;52.400;9.818;2023-11-19T02:31:13;7.20;99.90
1948;DHT22;974;52.400;9.818;2023-11-19T02:33:39;7.30;99.90
1948;DHT22;974;52.400;9.818;2023-11-19T02:36:06;7.30;99.90
1948;DHT22;974;52.400;9.818;2023-11-19T02:38:33;7.30;99.90
1948;DHT22;974;52.400;9.818;2023-11-19T02:40:59;7.40;99.90
1948;DHT22;974;52.400;9.818;2023-11-19T02:43:27;7.40;99.90
1948;DHT22;974;52.400;9.818;2023-11-19T02:45:53;7.40;99.90
1948;DHT22;974;52.400;9.818;2023-11-19T02:48:21;7.40;99.90
1948;DHT22;974;52.400;9.818;2023-11-19T02:50:46;7.50;99.90
1948;DHT22;974;52.400;9.818;2023-11-19T02:53:13;7.50;99.90
1948;DHT22;974;52.400;9.818;2023-11-19T02:55:38;7.50;99.90
1948;DHT22;974;52.400;9.818;2023-11-19T02:58:06;7.60;99.90
1948;DHT22;974;52.400;9.818;2023-11-19T03:00:40;7.60;99.90
1948;DHT22;974;52.400;9.818;2023-11-19T03:03:13;7.60;99.90
1948;DHT22;974;52.400;9.818;2023-11-19T03:05:51;7.60;99.90
1948;DHT22;974;52.400;9.818;2023-11-19T03:08:17;7.60;99.90
1948;DHT22;974;52.400;9.818;2023-11-19T03:10:42;7.70;99.90
1948;DHT22;974;52.400;9.818;2023-11-19T03:13:12;7.70;99.90
1948;DHT22;974;52.400;9.818;2023-11-19T03:15:39;7.80;99.90
1948;DHT22;974;52.400;9.818;2023-11-19T03:18:05;7.80;99.90
1948;DHT22;974;52.400;9.818;2023-11-19T03:20:30;7.80;99.90
1948;DHT22;974;52.400;9.818;2023-11-19T03:22:56;7.90;99.90
1948;DHT22;974;52.400;9.818;2023-11-19T03:25:25;7.90;99.90
1948;DHT22;974;52.400;9.818;2023-11-19T03:27:52;7.90;99.90
1948;DHT22;974;52.400;9.818;2023-11-19T03:30:18;8.00;99.90
1948;DHT22;974;52.400;9.818;2023-11-19T03:32:49;8.00;99.90
1948;DHT22;974;52.400;9.818;2023-11-19T03:35:14;8.00;99.90
1948;DHT22;974;52.400;9.818;2023-11-19T03:37:40;8.00;99.90
1948;DHT22;974;52.400;9.818;2023-11-19T03:40:05;8.00;99.90
1948;DHT22;974;52.400;9.818;2023-11-19T03:42:31;8.10;99.90
1948;DHT22;974;52.400;9.818;2023-11-19T03:44:57;8.20;99.90
1948;DHT22;974;52.400;9.818;2023-11-19T03:47:23;8.20;99.90
1948;DHT22;974;52.400;9.818;2023-11-19T03:49:49;8.20;99.90
1948;DHT22;974;52.400;9.818;2023-11-19T03:52:15;8.20;99.90
1948;DHT22;974;52.400;9.818;2023-11-19T03:54:41;8.30;99.90
1948;DHT22;974;52.400;9.818;2023-11-19T03:57:07;8.30;99.90
1948;DHT22;974;52.400;9.818;2023-11-19T03:59:35;8.30;99.90
1948;DHT22;974;52.400;9.818;2023-11-19T04:02:01;8.40;99.90
1948;DHT22;974;52.400;9.818;2023-11-19T04:04:28;8.40;99.90
1948;DHT22;974;52.400;9.818;2023-11-19T04:06:54;8.40;99.90
1948;DHT22;974;52.400;9.818;2023-11-19T04:09:20;8.40;99.90
1948;DHT22;974;52.400;9.818;2023-11-19T04:11:46;8.40;99.90
1948;DHT22;974;52.400;9.818;2023-11-19T04:14:15;8.40;99.90
1948;DHT22;974;52.400;9.818;2023-11-19T04:16:44;8.40;99.90
1948;DHT22;974;52.400;9.818;2023-11-19T04:19:10;8.50;99.90
1948;DHT22;974;52.400;9.818;2023-11-19T04:21:36;8.50;99.90
1948;DHT22;974;52.400;9.818;2023-11-19T04:24:01;8.50;99.90
1948;DHT22;974;52.400;9.818;2023-11-19T04:26:27;8.50;99.90
1948;DHT22;974;52.400;9.818;2023-11-19T04:28:52;8.50;99.90
1948;DHT22;974;52.400;9.818;2023-11-19T04:31:18;8.60;99.90
1948;DHT22;974;52.400;9.818;2023-11-19T04:33:44;8.60;99.90
1948;DHT22;974;52.400;9.818;2023-11-19T04:36:10;8.60;99.90
1948;DHT22;974;52.400;9.818;2023-11-19T04:38:36;8.60;99.90
1948;DHT22;974;52.400;9.818;2023-11-19T04:41:04;8.60;99.90
1948;DHT22;974;52.400;9.818;2023-11-19T04:43:31;8.60;99.90
1948;DHT22;974;52.400;9.818;2023-11-19T04:45:59;8.70;99.90
1948;DHT22;974;52.400;9.818;2023-11-19T04:48:25;8.70;99.90
1948;DHT22;974;52.400;9.818;2023-11-19T04:50:50;8.70;99.90
1948;DHT22;974;52.400;9.818;2023-11-19T04:53:17;8.80;99.90
1948;DHT22;974;52.400;9.818;2023-11-19T04:55:46;8.80;99.90
1948;DHT22;974;52.400;9.818;2023-11-19T04:58:12;8.80;99.90
1948;DHT22;974;52.400;9.818;2023-11-19T05:00:38;8.80;99.90
1948;DHT22;974;52.400;9.818;2023-11-19T05:03:03;8.80;99.90
1948;DHT22;974;52.400;9.818;2023-11-19T05:05:29;8.90;99.90
1948;DHT22;974;52.400;9.818;2023-11-19T05:07:54;9.00;99.90
1948;DHT22;974;52.400;9.818;2023-11-19T05:10:20;8.90;99.90
1948;DHT22;974;52.400;9.818;2023-11-19T05:12:46;9.00;99.90
1948;DHT22;974;52.400;9.818;2023-11-19T05:15:14;9.00;99.90
1948;DHT22;974;52.400;9.818;2023-11-19T05:17:40;9.00;99.90
1948;DHT22;974;52.400;9.818;2023-11-19T05:20:06;9.10;99.90
1948;DHT22;974;52.400;9.818;2023-11-19T05:22:42;9.10;99.90
1948;DHT22;974;52.400;9.818;2023-11-19T05:25:08;9.20;99.90
1948;DHT22;974;52.400;9.818;2023-11-19T05:27:35;9.30;99.90
1948;DHT22;974;52.400;9.818;2023-11-19T05:30:02;9.30;99.90
1948;DHT22;974;52.400;9.818;2023-11-19T05:32:28;9.30;99.90
1948;DHT22;974;52.400;9.818;2023-11-19T05:34:53;9.30;99.90
1948;DHT22;974;52.400;9.818;2023-11-19T05:37:19;9.30;99.90
1948;DHT22;974;52.400;9.818;2023-11-19T05:39:45;9.30;99.90
1948;DHT22;974;52.400;9.818;2023-11-19T05:42:11;9.30;99.90
1948;DHT22;974;52.400;9.818;2023-11-19T05:44:37;9.30;99.90
1948;DHT22;974;52.400;9.818;2023-11-19T05:47:03;9.30;99.90
1948;DHT22;974;52.400;9.818;2023-11-19T05:49:29;9.40;99.90
1948;DHT22;974;52.400;9.818;2023-11-19T05:51:55;9.40;99.90
1948;DHT22;974;52.400;9.818;2023-11-19T05:54:21;9.40;99.90
1948;DHT22;974;52.400;9.818;2023-11-19T05:56:50;9.40;99.90
1948;DHT22;974;52.400;9.818;2023-11-19T05:59:15;9.40;99.90
1948;DHT22;974;52.400;9.818;2023-11-19T06:01:46;9.50;99.90
1948;DHT22;974;52.400;9.818;2023-11-19T06:04:11;9.60;99.90
1948;DHT22;974;52.400;9.818;2023-11-19T06:06:37;9.60;99.90
1948;DHT22;974;52.400;9.818;2023-11-19T06:09:03;9.50;99.90
1948;DHT22;974;52.400;9.818;2023-11-19T06:11:29;9.60;99.90
1948;DHT22;974;52.400;9.818;2023-11-19T06:13:55;9.60;99.90
1948;DHT22;974;52.400;9.818;2023-11-19T06:16:21;9.60;99.90
1948;DHT22;974;52.400;9.818;2023-11-19T06:18:47;9.70;99.90
1948;DHT22;974;52.400;9.818;2023-11-19T06:21:12;9.80;99.90
1948;DHT22;974;52.400;9.818;2023-11-19T06:23:44;9.90;99.90
1948;DHT22;974;52.400;9.818;2023-11-19T06:26:10;10.00;99.90
1948;DHT22;974;52.400;9.818;2023-11-19T06:28:38;10.10;99.90
1948;DHT22;974;52.400;9.818;2023-11-19T06:31:04;10.20;99.90
1948;DHT22;974;52.400;9.818;2023-11-19T06:33:29;10.50;99.90
1948;DHT22;974;52.400;9.818;2023-11-19T06:35:55;10.40;99.90
1948;DHT22;974;52.400;9.818;2023-11-19T06:38:20;10.60;99.90
1948;DHT22;974;52.400;9.818;2023-11-19T06:40:46;10.50;99.90
1948;DHT22;974;52.400;9.818;2023-11-19T06:43:14;10.70;99.90
1948;DHT22;974;52.400;9.818;2023-11-19T06:45:40;10.70;99.90
1948;DHT22;974;52.400;9.818;2023-11-19T06:48:06;10.90;99.90
1948;DHT22;974;52.400;9.818;2023-11-19T06:50:32;10.80;99.90
1948;DHT22;974;52.400;9.818;2023-11-19T06:52:58;10.70;99.90
1948;DHT22;974;52.400;9.818;2023-11-19T06:55:24;10.90;99.90
1948;DHT22;974;52.400;9.818;2023-11-19T06:57:49;10.80;99.90
1948;DHT22;974;52.400;9.818;2023-11-19T07:00:15;10.80;99.90
1948;DHT22;974;52.400;9.818;2023-11-19T07:02:41;10.90;99.90
1948;DHT22;974;52.400;9.818;2023-11-19T07:05:06;10.80;99.90
1948;DHT22;974;52.400;9.818;2023-11-19T07:07:33;10.80;99.90
1948;DHT22;974;52.400;9.818;2023-11-19T07:09:59;10.90;99.90
1948;DHT22;974;52.400;9.818;2023-11-19T07:12:24;10.80;99.90
1948;DHT22;974;52.400;9.818;2023-11-19T07:14:53;10.80;99.90
1948;DHT22;974;52.400;9.818;2023-11-19T07:17:19;10.90;99.90
1948;DHT22;974;52.400;9.818;2023-11-19T07:19:46;10.90;99.90
1948;DHT22;974;52.400;9.818;2023-11-19T07:22:15;10.80;99.90
1948;DHT22;974;52.400;9.818;2023-11-19T07:24:41;10.80;99.90
1948;DHT22;974;52.400;9.818;2023-11-19T07:27:07;10.90;99.90
1948;DHT22;974;52.400;9.818;2023-11-19T07:29:34;10.90;99.90
1948;DHT22;974;52.400;9.818;2023-11-19T07:32:00;10.90;99.90
1948;DHT22;974;52.400;9.818;2023-11-19T07:34:27;10.90;99.90
1948;DHT22;974;52.400;9.818;2023-11-19T07:36:54;10.90;99.90
1948;DHT22;974;52.400;9.818;2023-11-19T07:39:22;11.00;99.90
1948;DHT22;974;52.400;9.818;2023-11-19T07:41:51;11.00;99.90
1948;DHT22;974;52.400;9.818;2023-11-19T07:44:17;11.00;99.90
1948;DHT22;974;52.400;9.818;2023-11-19T07:46:46;11.00;99.90
1948;DHT22;974;52.400;9.818;2023-11-19T07:49:12;11.00;99.90
1948;DHT22;974;52.400;9.818;2023-11-19T07:51:40;11.00;99.90
1948;DHT22;974;52.400;9.818;2023-11-19T07:54:07;11.10;99.90
1948;DHT22;974;52.400;9.818;2023-11-19T07:56:33;11.10;99.90
1948;DHT22;974;52.400;9.818;2023-11-19T07:59:02;11.10;99.90
1948;DHT22;974;52.400;9.818;2023-11-19T08:01:28;11.00;99.90
1948;DHT22;974;52.400;9.818;2023-11-19T08:03:54;11.10;99.90
1948;DHT22;974;52.400;9.818;2023-11-19T08:06:19;11.10;99.90
1948;DHT22;974;52.400;9.818;2023-11-19T08:08:45;11.00;99.90
1948;DHT22;974;52.400;9.818;2023-11-19T08:11:10;11.00;99.90
1948;DHT22;974;52.400;9.818;2023-11-19T08:13:36;11.00;99.90
1948;DHT22;974;52.400;9.818;2023-11-19T08:16:01;11.10;99.90
1948;DHT22;974;52.400;9.818;2023-11-19T08:18:30;11.10;99.90
1948;DHT22;974;52.400;9.818;2023-11-19T08:20:56;11.10;99.90
1948;DHT22;974;52.400;9.818;2023-11-19T08:23:23;11.10;99.90
1948;DHT22;974;52.400;9.818;2023-11-19T08:25:52;11.20;99.90
1948;DHT22;974;52.400;9.818;2023-11-19T08:28:18;11.10;99.90
1948;DHT22;974;52.400;9.818;2023-11-19T08:30:43;11.10;99.90
1948;DHT22;974;52.400;9.818;2023-11-19T08:33:09;11.20;99.90
1948;DHT22;974;52.400;9.818;2023-11-19T08:35:35;11.10;99.90
1948;DHT22;974;52.400;9.818;2023-11-19T08:38:00;11.10;99.90
1948;DHT22;974;52.400;9.818;2023-11-19T08:40:27;11.20;99.90
1948;DHT22;974;52.400;9.818;2023-11-19T08:42:52;11.10;99.90
1948;DHT22;974;52.400;9.818;2023-11-19T08:45:18;11.20;99.90
1948;DHT22;974;52.400;9.818;2023-11-19T08:47:44;11.20;99.90
1948;DHT22;974;52.400;9.818;2023-11-19T08:50:11;11.20;99.90
1948;DHT22;974;52.400;9.818;2023-11-19T08:52:36;11.20;99.90
1948;DHT22;974;52.400;9.818;2023-11-19T08:55:02;11.10;99.90
1948;DHT22;974;52.400;9.818;2023-11-19T08:57:28;11.10;99.90
1948;DHT22;974;52.400;9.818;2023-11-19T08:59:54;11.20;99.90
1948;DHT22;974;52.400;9.818;2023-11-19T09:02:19;11.20;99.90
1948;DHT22;974;52.400;9.818;2023-11-19T09:04:45;11.30;99.90
1948;DHT22;974;52.400;9.818;2023-11-19T09:07:11;11.30;99.90
1948;DHT22;974;52.400;9.818;2023-11-19T09:09:39;11.30;99.90
1948;DHT22;974;52.400;9.818;2023-11-19T09:12:08;11.40;99.90
1948;DHT22;974;52.400;9.818;2023-11-19T09:14:33;11.30;99.90
1948;DHT22;974;52.400;9.818;2023-11-19T09:16:59;11.40;99.90
1948;DHT22;974;52.400;9.818;2023-11-19T09:19:25;11.30;99.90
1948;DHT22;974;52.400;9.818;2023-11-19T09:21:52;11.30;99.90
1948;DHT22;974;52.400;9.818;2023-11-19T09:24:18;11.20;99.90
1948;DHT22;974;52.400;9.818;2023-11-19T09:26:43;11.20;99.90
1948;DHT22;974;52.400;9.818;2023-11-19T09:29:09;11.30;99.90
1948;DHT22;974;52.400;9.818;2023-11-19T09:31:34;11.40;99.90
1948;DHT22;974;52.400;9.818;2023-11-19T09:34:01;11.40;99.90
1948;DHT22;974;52.400;9.818;2023-11-19T09:36:26;11.50;99.90
1948;DHT22;974;52.400;9.818;2023-11-19T09:38:52;11.50;99.90
1948;DHT22;974;52.400;9.818;2023-11-19T09:41:20;11.60;99.90
1948;DHT22;974;52.400;9.818;2023-11-19T09:43:46;11.60;99.90
1948;DHT22;974;52.400;9.818;2023-11-19T09:46:16;11.60;99.90
1948;DHT22;974;52.400;9.818;2023-11-19T09:48:42;11.60;99.90
1948;DHT22;974;52.400;9.818;2023-11-19T09:51:11;11.60;99.90
1948;DHT22;974;52.400;9.818;2023-11-19T09:53:37;11.50;99.90
1948;DHT22;974;52.400;9.818;2023-11-19T09:56:07;11.50;99.90
1948;DHT22;974;52.400;9.818;2023-11-19T09:58:37;11.50;99.90
1948;DHT22;974;52.400;9.818;2023-11-19T10:01:05;11.40;99.90
1948;DHT22;974;52.400;9.818;2023-11-19T10:03:39;11.40;99.90
1948;DHT22;974;52.400;9.818;2023-11-19T10:06:10;11.50;99.90
1948;DHT22;974;52.400;9.818;2023-11-19T10:08:39;11.60;99.90
1948;DHT22;974;52.400;9.818;2023-11-19T10:11:06;11.70;99.90
1948;DHT22;974;52.400;9.818;2023-11-19T10:13:35;11.70;99.90
1948;DHT22;974;52.400;9.818;2023-11-19T10:16:07;11.70;99.90
1948;DHT22;974;52.400;9.818;2023-11-19T10:18:34;11.70;99.90
1948;DHT22;974;52.400;9.818;2023-11-19T10:21:06;11.70;99.90
1948;DHT22;974;52.400;9.818;2023-11-19T10:23:50;11.70;99.90
1948;DHT22;974;52.400;9.818;2023-11-19T10:26:17;11.70;99.90
1948;DHT22;974;52.400;9.818;2023-11-19T10:28:43;11.70;99.90
1948;DHT22;974;52.400;9.818;2023-11-19T10:31:14;11.80;99.90
1948;DHT22;974;52.400;9.818;2023-11-19T10:33:43;11.80;99.90
1948;DHT22;974;52.400;9.818;2023-11-19T10:36:14;11.80;99.90
1948;DHT22;974;52.400;9.818;2023-11-19T10:38:40;11.80;99.90
1948;DHT22;974;52.400;9.818;2023-11-19T10:58:02;12.20;99.90
1948;DHT22;974;52.400;9.818;2023-11-19T11:00:30;12.30;99.90
1948;DHT22;974;52.400;9.818;2023-11-19T11:03:02;12.30;99.90
1948;DHT22;974;52.400;9.818;2023-11-19T11:05:32;12.30;99.90
1948;DHT22;974;52.400;9.818;2023-11-19T11:08:01;12.20;99.90
1948;DHT22;974;52.400;9.818;2023-11-19T11:10:28;12.20;99.90
1948;DHT22;974;52.400;9.818;2023-11-19T11:12:59;12.30;99.90
1948;DHT22;974;52.400;9.818;2023-11-19T11:15:27;12.30;99.90
1948;DHT22;974;52.400;9.818;2023-11-19T11:17:59;12.40;99.90
1948;DHT22;974;52.400;9.818;2023-11-19T11:20:26;12.40;99.90
1948;DHT22;974;52.400;9.818;2023-11-19T11:30:52;12.40;99.90
1948;DHT22;974;52.400;9.818;2023-11-19T11:33:26;12.50;99.90
1948;DHT22;974;52.400;9.818;2023-11-19T11:36:17;12.50;99.90
1948;DHT22;974;52.400;9.818;2023-11-19T11:38:48;12.60;99.90
1948;DHT22;974;52.400;9.818;2023-11-19T11:41:22;12.40;99.90
1948;DHT22;974;52.400;9.818;2023-11-19T11:43:54;12.40;99.90
1948;DHT22;974;52.400;9.818;2023-11-19T11:48:59;12.60;99.90
1948;DHT22;974;52.400;9.818;2023-11-19T11:54:26;12.40;99.90
1948;DHT22;974;52.400;9.818;2023-11-19T11:57:10;12.30;99.90
1948;DHT22;974;52.400;9.818;2023-11-19T12:02:08;12.20;99.90
1948;DHT22;974;52.400;9.818;2023-11-19T12:04:37;12.20;99.90
1948;DHT22;974;52.400;9.818;2023-11-19T12:07:06;12.20;99.90
1948;DHT22;974;52.400;9.818;2023-11-19T12:09:32;12.20;99.90
1948;DHT22;974;52.400;9.818;2023-11-19T12:12:17;12.30;99.90
1948;DHT22;974;52.400;9.818;2023-11-19T12:15:07;12.30;99.90
1948;DHT22;974;52.400;9.818;2023-11-19T12:17:40;12.40;99.90
1948;DHT22;974;52.400;9.818;2023-11-19T12:20:10;12.40;99.90
1948;DHT22;974;52.400;9.818;2023-11-19T12:22:41;12.30;99.90
1948;DHT22;974;52.400;9.818;2023-11-19T12:25:08;12.30;99.90
1948;DHT22;974;52.400;9.818;2023-11-19T12:27:44;12.30;99.90
1948;DHT22;974;52.400;9.818;2023-11-19T12:30:11;12.30;99.90
1948;DHT22;974;52.400;9.818;2023-11-19T12:32:44;12.40;99.90
1948;DHT22;974;52.400;9.818;2023-11-19T12:35:12;12.40;99.90
1948;DHT22;974;52.400;9.818;2023-11-19T12:37:49;12.40;99.90
1948;DHT22;974;52.400;9.818;2023-11-19T12:40:25;12.40;99.90
1948;DHT22;974;52.400;9.818;2023-11-19T12:42:52;12.40;99.90
1948;DHT22;974;52.400;9.818;2023-11-19T12:45:21;12.40;99.90
1948;DHT22;974;52.400;9.818;2023-11-19T12:47:49;12.40;99.90
1948;DHT22;974;52.400;9.818;2023-11-19T12:50:16;12.40;99.90
1948;DHT22;974;52.400;9.818;2023-11-19T12:53:17;12.30;99.90
1948;DHT22;974;52.400;9.818;2023-11-19T12:55:43;12.30;99.90
1948;DHT22;974;52.400;9.818;2023-11-19T12:58:09;12.30;99.90
1948;DHT22;974;52.400;9.818;2023-11-19T13:00:37;12.30;99.90
1948;DHT22;974;52.400;9.818;2023-11-19T13:03:03;12.20;99.90
1948;DHT22;974;52.400;9.818;2023-11-19T13:05:33;12.20;99.90
1948;DHT22;974;52.400;9.818;2023-11-19T13:08:03;12.20;99.90
1948;DHT22;974;52.400;9.818;2023-11-19T13:10:31;12.20;99.90
1948;DHT22;974;52.400;9.818;2023-11-19T13:13:01;12.20;99.90
1948;DHT22;974;52.400;9.818;2023-11-19T13:15:27;12.20;99.90
1948;DHT22;974;52.400;9.818;2023-11-19T13:17:53;12.20;99.90
1948;DHT22;974;52.400;9.818;2023-11-19T13:20:19;12.20;99.90
1948;DHT22;974;52.400;9.818;2023-11-19T13:23:00;12.20;99.90
1948;DHT22;974;52.400;9.818;2023-11-19T13:25:27;12.10;99.90
1948;DHT22;974;52.400;9.818;2023-11-19T13:27:53;12.10;99.90
1948;DHT22;974;52.400;9.818;2023-11-19T13:30:19;12.20;99.90
1948;DHT22;974;52.400;9.818;2023-11-19T13:32:45;12.10;99.90
1948;DHT22;974;52.400;9.818;2023-11-19T13:35:12;12.10;99.90
1948;DHT22;974;52.400;9.818;2023-11-19T13:37:38;12.10;99.90
1948;DHT22;974;52.400;9.818;2023-11-19T13:40:10;12.00;99.90
1948;DHT22;974;52.400;9.818;2023-11-19T13:42:39;12.10;99.90
1948;DHT22;974;52.400;9.818;2023-11-19T13:45:11;12.10;99.90
1948;DHT22;974;52.400;9.818;2023-11-19T13:47:43;12.00;99.90
1948;DHT22;974;52.400;9.818;2023-11-19T13:50:10;12.00;99.90
1948;DHT22;974;52.400;9.818;2023-11-19T13:52:37;12.00;99.90
1948;DHT22;974;52.400;9.818;2023-11-19T13:55:08;12.00;99.90
1948;DHT22;974;52.400;9.818;2023-11-19T13:57:34;12.00;99.90
1948;DHT22;974;52.400;9.818;2023-11-19T14:00:02;12.00;99.90
1948;DHT22;974;52.400;9.818;2023-11-19T14:02:31;12.00;99.90
1948;DHT22;974;52.400;9.818;2023-11-19T14:04:57;12.00;99.90
1948;DHT22;974;52.400;9.818;2023-11-19T14:07:22;12.00;99.90
1948;DHT22;974;52.400;9.818;2023-11-19T14:09:51;12.00;99.90
1948;DHT22;974;52.400;9.818;2023-11-19T14:12:16;12.00;99.90
1948;DHT22;974;52.400;9.818;2023-11-19T14:14:43;11.90;99.90
1948;DHT22;974;52.400;9.818;2023-11-19T14:17:09;11.90;99.90
1948;DHT22;974;52.400;9.818;2023-11-19T14:19:36;11.90;99.90
1948;DHT22;974;52.400;9.818;2023-11-19T14:22:02;11.90;99.90
1948;DHT22;974;52.400;9.818;2023-11-19T14:24:28;11.90;99.90
1948;DHT22;974;52.400;9.818;2023-11-19T14:26:53;12.00;99.90
1948;DHT22;974;52.400;9.818;2023-11-19T14:29:19;12.10;99.90
1948;DHT22;974;52.400;9.818;2023-11-19T14:31:44;12.00;99.90
1948;DHT22;974;52.400;9.818;2023-11-19T14:34:10;12.00;99.90
1948;DHT22;974;52.400;9.818;2023-11-19T14:36:35;12.00;99.90
1948;DHT22;974;52.400;9.818;2023-11-19T14:39:01;12.00;99.90
1948;DHT22;974;52.400;9.818;2023-11-19T14:41:27;12.00;99.90
1948;DHT22;974;52.400;9.818;2023-11-19T14:43:55;11.90;99.90
1948;DHT22;974;52.400;9.818;2023-11-19T14:46:21;11.90;99.90
1948;DHT22;974;52.400;9.818;2023-11-19T14:48:46;11.90;99.90
1948;DHT22;974;52.400;9.818;2023-11-19T14:51:12;11.90;99.90
1948;DHT22;974;52.400;9.818;2023-11-19T14:53:38;11.90;99.90
1948;DHT22;974;52.400;9.818;2023-11-19T14:56:04;11.90;99.90
1948;DHT22;974;52.400;9.818;2023-11-19T14:58:30;11.70;99.90
1948;DHT22;974;52.400;9.818;2023-11-19T15:00:55;11.50;99.90
1948;DHT22;974;52.400;9.818;2023-11-19T15:03:24;11.40;99.90
1948;DHT22;974;52.400;9.818;2023-11-19T15:05:49;11.40;99.90
1948;DHT22;974;52.400;9.818;2023-11-19T15:08:16;11.40;99.90
1948;DHT22;974;52.400;9.818;2023-11-19T15:10:42;11.40;99.90
1948;DHT22;974;52.400;9.818;2023-11-19T15:13:08;11.30;99.90
1948;DHT22;974;52.400;9.818;2023-11-19T15:15:34;11.20;99.90
1948;DHT22;974;52.400;9.818;2023-11-19T15:18:00;11.00;99.90
1948;DHT22;974;52.400;9.818;2023-11-19T15:20:26;11.00;99.90
1948;DHT22;974;52.400;9.818;2023-11-19T15:22:55;10.90;99.90
1948;DHT22;974;52.400;9.818;2023-11-19T15:25:21;10.90;99.90
1948;DHT22;974;52.400;9.818;2023-11-19T15:27:48;10.80;99.90
1948;DHT22;974;52.400;9.818;2023-11-19T15:30:16;10.80;99.90
1948;DHT22;974;52.400;9.818;2023-11-19T15:32:42;10.80;99.90
1948;DHT22;974;52.400;9.818;2023-11-19T15:35:09;10.70;99.90
1948;DHT22;974;52.400;9.818;2023-11-19T15:37:41;10.60;99.90
1948;DHT22;974;52.400;9.818;2023-11-19T15:40:12;10.50;99.90
1948;DHT22;974;52.400;9.818;2023-11-19T15:42:39;10.40;99.90
1948;DHT22;974;52.400;9.818;2023-11-19T15:45:11;10.40;99.90
1948;DHT22;974;52.400;9.818;2023-11-19T15:47:37;10.40;99.90
1948;DHT22;974;52.400;9.818;2023-11-19T15:50:06;10.40;99.90
1948;DHT22;974;52.400;9.818;2023-11-19T15:52:36;10.40;99.90
1948;DHT22;974;52.400;9.818;2023-11-19T15:55:01;10.40;99.90
1948;DHT22;974;52.400;9.818;2023-11-19T15:57:27;10.40;99.90
1948;DHT22;974;52.400;9.818;2023-11-19T15:59:52;10.30;99.90
1948;DHT22;974;52.400;9.818;2023-11-19T16:02:19;10.30;99.90
1948;DHT22;974;52.400;9.818;2023-11-19T16:04:44;10.30;99.90
1948;DHT22;974;52.400;9.818;2023-11-19T16:07:13;10.40;99.90
1948;DHT22;974;52.400;9.818;2023-11-19T16:09:39;10.30;99.90
1948;DHT22;974;52.400;9.818;2023-11-19T16:12:06;10.30;99.90
1948;DHT22;974;52.400;9.818;2023-11-19T16:14:33;10.30;99.90
1948;DHT22;974;52.400;9.818;2023-11-19T16:16:59;10.30;99.90
1948;DHT22;974;52.400;9.818;2023-11-19T16:19:24;10.30;99.90
1948;DHT22;974;52.400;9.818;2023-11-19T16:21:52;10.30;99.90
1948;DHT22;974;52.400;9.818;2023-11-19T16:24:17;10.30;99.90
1948;DHT22;974;52.400;9.818;2023-11-19T16:26:43;10.30;99.90
1948;DHT22;974;52.400;9.818;2023-11-19T16:29:08;10.30;99.90
1948;DHT22;974;52.400;9.818;2023-11-19T16:31:35;10.30;99.90
1948;DHT22;974;52.400;9.818;2023-11-19T16:34:00;10.30;99.90
1948;DHT22;974;52.400;9.818;2023-11-19T16:36:26;10.20;99.90
1948;DHT22;974;52.400;9.818;2023-11-19T16:38:51;10.20;99.90
1948;DHT22;974;52.400;9.818;2023-11-19T16:41:23;10.30;99.90
1948;DHT22;974;52.400;9.818;2023-11-19T16:43:52;10.30;99.90
1948;DHT22;974;52.400;9.818;2023-11-19T16:46:20;10.20;99.90
1948;DHT22;974;52.400;9.818;2023-11-19T16:48:46;10.30;99.90
1948;DHT22;974;52.400;9.818;2023-11-19T16:51:15;10.20;99.90
1948;DHT22;974;52.400;9.818;2023-11-19T16:53:48;10.30;99.90
1948;DHT22;974;52.400;9.818;2023-11-19T16:56:14;10.20;99.90
1948;DHT22;974;52.400;9.818;2023-11-19T16:58:40;10.20;99.90